createdAt,value
2023-02-23T00:02:09.108Z,10.80
2023-02-23T00:04:38.316Z,10.70
2023-02-23T00:07:06.749Z,10.60
2023-02-23T00:09:37.981Z,11.20
2023-02-23T00:12:10.444Z,10.40
2023-02-23T00:14:38.999Z,9.90
2023-02-23T00:17:14.514Z,11.10
2023-02-23T00:19:46.369Z,11.60
2023-02-23T00:22:14.791Z,11.40
2023-02-23T00:24:43.260Z,11.20
2023-02-23T00:27:17.857Z,11.50
2023-02-23T00:29:49.532Z,11.50
2023-02-23T00:32:20.984Z,10.90
2023-02-23T00:34:49.969Z,12.00
2023-02-23T00:37:19.785Z,12.40
2023-02-23T00:39:50.554Z,11.30
2023-02-23T00:42:18.837Z,10.90
2023-02-23T00:44:48.959Z,11.40
2023-02-23T00:47:17.437Z,11.50
2023-02-23T00:49:45.800Z,10.50
2023-02-23T00:52:14.894Z,10.60
2023-02-23T00:54:43.441Z,10.80
2023-02-23T00:57:11.663Z,10.20
2023-02-23T00:59:40.068Z,10.10
2023-02-23T01:02:08.487Z,10.00
2023-02-23T01:04:36.734Z,10.10
2023-02-23T01:07:06.669Z,11.10
2023-02-23T01:09:35.314Z,9.60
2023-02-23T01:12:07.813Z,10.20
2023-02-23T01:14:38.110Z,10.20
2023-02-23T01:17:07.678Z,10.60
2023-02-23T01:19:39.031Z,10.10
2023-02-23T01:22:07.204Z,10.10
2023-02-23T01:24:35.455Z,10.60
2023-02-23T01:27:06.586Z,9.60
2023-02-23T01:29:35.531Z,9.90
2023-02-23T01:32:05.007Z,9.70
2023-02-23T01:34:33.384Z,9.70
2023-02-23T01:37:01.783Z,9.80
2023-02-23T01:39:32.763Z,9.00
2023-02-23T01:42:01.051Z,9.30
2023-02-23T01:44:32.249Z,10.70
2023-02-23T01:47:00.431Z,8.80
2023-02-23T01:49:31.055Z,9.30
2023-02-23T01:52:04.920Z,8.80
2023-02-23T01:54:41.505Z,8.40
2023-02-23T01:57:14.476Z,9.40
2023-02-23T01:59:46.254Z,9.00
2023-02-23T02:02:16.209Z,8.60
2023-02-23T02:04:45.057Z,8.80
2023-02-23T02:07:17.805Z,8.00
2023-02-23T02:10:09.749Z,7.80
2023-02-23T02:12:54.895Z,9.00
2023-02-23T02:15:31.788Z,8.10
2023-02-23T02:18:23.693Z,8.40
2023-02-23T02:21:25.723Z,7.80
2023-02-23T02:24:24.791Z,7.90
2023-02-23T02:27:46.088Z,7.80
2023-02-23T02:30:45.030Z,7.70
2023-02-23T02:33:26.826Z,7.30
2023-02-23T02:36:48.345Z,7.50
2023-02-23T02:39:54.649Z,7.90
2023-02-23T02:42:40.121Z,8.40
2023-02-23T02:45:57.216Z,7.00
2023-02-23T02:48:49.747Z,7.50
2023-02-23T02:51:44.044Z,7.70
2023-02-23T02:54:49.098Z,7.30
2023-02-23T02:57:57.147Z,7.60
2023-02-23T03:00:55.916Z,7.90
2023-02-23T03:04:01.573Z,8.40
2023-02-23T03:07:01.568Z,7.90
2023-02-23T03:10:14.235Z,8.50
2023-02-23T03:13:17.040Z,9.60
2023-02-23T03:16:27.253Z,9.10
2023-02-23T03:19:24.360Z,8.40
2023-02-23T03:22:25.866Z,7.80
2023-02-23T03:25:19.228Z,7.90
2023-02-23T03:28:14.689Z,8.30
2023-02-23T03:31:13.214Z,7.40
2023-02-23T03:34:09.068Z,7.60
2023-02-23T03:37:02.315Z,7.60
2023-02-23T03:39:57.820Z,7.90
2023-02-23T03:42:49.541Z,7.40
2023-02-23T03:45:39.805Z,7.40
2023-02-23T03:48:30.538Z,7.30
2023-02-23T03:51:21.919Z,7.00
2023-02-23T03:54:18.804Z,7.60
2023-02-23T03:57:09.728Z,6.50
2023-02-23T04:00:05.599Z,6.80
2023-02-23T04:03:03.206Z,7.20
2023-02-23T04:05:54.285Z,6.50
2023-02-23T04:08:47.353Z,7.40
2023-02-23T04:11:42.686Z,7.00
2023-02-23T04:14:24.742Z,7.10
2023-02-23T04:16:53.061Z,6.20
2023-02-23T04:19:21.190Z,6.20
2023-02-23T04:21:49.558Z,7.50
2023-02-23T04:24:17.821Z,7.70
2023-02-23T04:26:45.968Z,7.90
2023-02-23T04:29:14.516Z,7.50
2023-02-23T04:31:42.854Z,7.10
2023-02-23T04:34:11.170Z,6.80
2023-02-23T04:36:39.340Z,7.60
2023-02-23T04:39:07.436Z,7.30
2023-02-23T04:41:35.560Z,7.30
2023-02-23T04:44:04.197Z,7.80
2023-02-23T04:46:32.688Z,7.90
2023-02-23T04:49:00.989Z,7.70
2023-02-23T04:51:32.403Z,7.90
2023-02-23T04:54:00.578Z,7.60
2023-02-23T04:56:28.876Z,7.20
2023-02-23T04:58:57.048Z,7.40
2023-02-23T05:01:25.864Z,7.30
2023-02-23T05:03:54.507Z,8.20
2023-02-23T05:06:22.614Z,7.20
2023-02-23T05:08:50.792Z,7.70
2023-02-23T05:11:19.236Z,7.30
2023-02-23T05:13:47.572Z,8.30
2023-02-23T05:16:15.871Z,8.40
2023-02-23T05:18:44.034Z,7.60
2023-02-23T05:21:12.197Z,7.40
2023-02-23T05:23:40.304Z,7.60
2023-02-23T05:26:12.425Z,8.20
2023-02-23T05:28:42.379Z,8.60
2023-02-23T05:31:13.283Z,8.50
2023-02-23T05:33:45.881Z,8.80
2023-02-23T05:36:17.606Z,8.90
2023-02-23T05:38:47.141Z,8.60
2023-02-23T05:41:20.031Z,8.70
2023-02-23T05:43:51.256Z,8.50
2023-02-23T05:46:24.975Z,9.00
2023-02-23T05:49:01.585Z,8.90
2023-02-23T05:51:32.158Z,9.20
2023-02-23T05:54:01.000Z,8.30
2023-02-23T05:56:29.159Z,9.50
2023-02-23T05:58:58.801Z,8.60
2023-02-23T06:01:27.657Z,9.40
2023-02-23T06:03:56.317Z,8.70
2023-02-23T06:06:25.781Z,8.90
2023-02-23T06:08:54.349Z,8.40
2023-02-23T06:11:22.738Z,9.00
2023-02-23T06:13:50.903Z,9.50
2023-02-23T06:16:19.107Z,9.20
2023-02-23T06:18:47.517Z,8.10
2023-02-23T06:21:15.593Z,8.80
2023-02-23T06:23:43.780Z,9.70
2023-02-23T06:26:11.959Z,8.60
2023-02-23T06:28:40.108Z,9.50
2023-02-23T06:31:08.324Z,8.70
2023-02-23T06:33:36.614Z,8.50
2023-02-23T06:36:05.316Z,9.70
2023-02-23T06:38:33.468Z,9.90
2023-02-23T06:41:07.873Z,9.90
2023-02-23T06:43:36.264Z,10.80
2023-02-23T06:46:04.905Z,8.90
2023-02-23T06:48:33.161Z,9.60
2023-02-23T06:51:01.400Z,10.10
2023-02-23T06:53:31.488Z,10.20
2023-02-23T06:56:00.462Z,9.60
2023-02-23T06:58:28.943Z,9.90
2023-02-23T07:00:58.711Z,8.90
2023-02-23T07:03:27.261Z,9.40
2023-02-23T07:05:55.426Z,9.80
2023-02-23T07:08:23.767Z,9.70
2023-02-23T07:10:52.005Z,9.40
2023-02-23T07:13:22.090Z,9.60
2023-02-23T07:15:50.972Z,9.10
2023-02-23T07:18:19.415Z,9.30
2023-02-23T07:20:47.564Z,9.40
2023-02-23T07:23:16.066Z,9.00
2023-02-23T07:25:44.462Z,9.60
2023-02-23T07:28:15.398Z,9.40
2023-02-23T07:30:43.678Z,8.50
2023-02-23T07:33:11.971Z,9.10
2023-02-23T07:35:40.106Z,8.20
2023-02-23T07:38:08.304Z,9.00
2023-02-23T07:40:36.375Z,8.80
2023-02-23T07:43:04.478Z,7.90
2023-02-23T07:45:32.775Z,8.70
2023-02-23T07:48:01.043Z,8.70
2023-02-23T07:50:29.227Z,8.80
2023-02-23T07:52:57.424Z,9.00
2023-02-23T07:55:25.576Z,8.20
2023-02-23T07:57:53.969Z,7.70
2023-02-23T08:00:22.293Z,7.90
2023-02-23T08:02:50.774Z,6.80
2023-02-23T08:05:20.264Z,8.10
2023-02-23T08:07:48.520Z,8.60
2023-02-23T08:10:16.885Z,8.10
2023-02-23T08:12:45.041Z,8.20
2023-02-23T08:15:13.287Z,9.00
2023-02-23T08:17:42.715Z,9.30
2023-02-23T08:20:11.372Z,7.80
2023-02-23T08:22:48.804Z,7.90
2023-02-23T08:25:23.567Z,9.30
2023-02-23T08:27:52.846Z,9.70
2023-02-23T08:30:23.086Z,9.00
2023-02-23T08:32:51.748Z,8.60
2023-02-23T08:35:21.352Z,9.30
2023-02-23T08:37:49.577Z,9.10
2023-02-23T08:40:19.645Z,8.40
2023-02-23T08:42:52.349Z,9.00
2023-02-23T08:45:21.616Z,7.90
2023-02-23T08:47:49.957Z,9.00
2023-02-23T08:50:18.282Z,8.00
2023-02-23T08:52:46.574Z,9.00
2023-02-23T08:55:16.778Z,9.10
2023-02-23T08:57:45.191Z,10.00
2023-02-23T09:00:16.919Z,10.60
2023-02-23T09:02:48.456Z,10.20
2023-02-23T09:05:18.258Z,10.30
2023-02-23T09:07:47.248Z,10.20
2023-02-23T09:10:20.104Z,10.90
2023-02-23T09:12:48.343Z,9.60
2023-02-23T09:15:16.698Z,10.80
2023-02-23T09:17:45.167Z,9.30
2023-02-23T09:20:16.118Z,9.70
2023-02-23T09:22:51.218Z,10.30
2023-02-23T09:25:23.067Z,10.60
2023-02-23T09:27:53.459Z,9.60
2023-02-23T09:30:22.347Z,10.10
2023-02-23T09:32:51.821Z,10.00
2023-02-23T09:35:22.092Z,10.80
2023-02-23T09:37:55.160Z,10.50
2023-02-23T09:40:28.176Z,11.20
2023-02-23T09:43:26.309Z,11.00
2023-02-23T09:46:31.730Z,9.10
2023-02-23T09:49:02.981Z,10.60
2023-02-23T09:51:38.744Z,10.60
2023-02-23T09:54:13.135Z,10.60
2023-02-23T09:56:49.062Z,11.00
2023-02-23T09:59:20.561Z,10.60
2023-02-23T10:01:48.780Z,11.50
2023-02-23T10:04:38.506Z,10.50
2023-02-23T10:07:35.948Z,11.10
2023-02-23T10:10:51.774Z,10.50
2023-02-23T10:13:50.338Z,10.40
2023-02-23T10:16:45.815Z,10.40
2023-02-23T10:19:41.748Z,9.60
2023-02-23T10:22:12.479Z,9.90
2023-02-23T10:24:45.259Z,10.20
2023-02-23T10:27:23.662Z,10.70
2023-02-23T10:29:55.105Z,9.50
2023-02-23T10:32:46.196Z,9.50
2023-02-23T10:35:17.430Z,8.90
2023-02-23T10:37:50.642Z,10.70
2023-02-23T10:40:25.521Z,11.10
2023-02-23T10:42:54.897Z,9.70
2023-02-23T10:45:25.697Z,10.10
2023-02-23T10:48:05.779Z,10.00
2023-02-23T10:50:38.428Z,10.70
2023-02-23T10:53:24.058Z,11.60
2023-02-23T10:56:14.050Z,11.40
2023-02-23T10:58:46.725Z,11.10
2023-02-23T11:01:18.611Z,12.10
2023-02-23T11:04:05.464Z,11.30
2023-02-23T11:06:39.710Z,11.00
2023-02-23T11:09:43.366Z,10.60
2023-02-23T11:12:23.154Z,11.00
2023-02-23T11:14:54.157Z,10.50
2023-02-23T11:17:29.892Z,11.00
2023-02-23T11:20:01.936Z,10.50
2023-02-23T11:22:32.548Z,10.10
2023-02-23T11:25:05.851Z,10.20
2023-02-23T11:27:34.202Z,11.10
2023-02-23T11:30:07.014Z,11.10
2023-02-23T11:32:39.028Z,11.10
2023-02-23T11:35:21.436Z,10.50
2023-02-23T11:37:50.341Z,11.50
2023-02-23T11:40:32.176Z,10.20
2023-02-23T11:43:10.180Z,9.80
2023-02-23T11:45:46.196Z,10.10
2023-02-23T11:48:34.989Z,10.20
2023-02-23T11:51:03.659Z,11.00
2023-02-23T11:53:37.131Z,11.40
2023-02-23T11:56:11.274Z,10.50
2023-02-23T11:58:49.908Z,10.90
2023-02-23T12:01:34.893Z,10.80
2023-02-23T12:04:03.885Z,9.90
2023-02-23T12:06:37.818Z,11.00
2023-02-23T12:09:29.292Z,10.10
2023-02-23T12:12:06.891Z,10.70
2023-02-23T12:14:44.144Z,10.40
2023-02-23T12:17:25.789Z,9.70
2023-02-23T12:20:15.649Z,9.50
2023-02-23T12:22:49.456Z,11.30
2023-02-23T12:25:36.520Z,10.80
2023-02-23T12:28:31.432Z,10.70
2023-02-23T12:31:25.528Z,10.50
2023-02-23T12:34:01.424Z,10.10
2023-02-23T12:36:45.058Z,10.20
2023-02-23T12:39:32.198Z,10.20
2023-02-23T12:42:26.084Z,11.10
2023-02-23T12:44:58.968Z,11.10
2023-02-23T12:47:47.024Z,10.80
2023-02-23T12:50:23.459Z,10.40
2023-02-23T12:52:57.850Z,10.30
2023-02-23T12:55:48.983Z,10.70
2023-02-23T12:58:29.226Z,11.90
2023-02-23T13:01:09.691Z,11.60
2023-02-23T13:04:06.056Z,10.80
2023-02-23T13:06:46.204Z,10.50
2023-02-23T13:09:36.150Z,11.30
2023-02-23T13:12:15.121Z,11.20
2023-02-23T13:15:07.912Z,11.40
2023-02-23T13:17:47.849Z,11.30
2023-02-23T13:20:52.321Z,11.10
2023-02-23T13:26:13.609Z,11.40
2023-02-23T13:29:11.076Z,11.10
2023-02-23T13:31:41.623Z,11.40
2023-02-23T13:34:15.681Z,11.20
2023-02-23T13:36:46.035Z,11.10
2023-02-23T13:39:29.724Z,11.50
2023-02-23T13:42:20.082Z,11.30
2023-02-23T13:45:07.910Z,10.90
2023-02-23T13:47:59.110Z,11.70
2023-02-23T13:50:55.128Z,11.30
2023-02-23T13:53:42.476Z,11.10
2023-02-23T13:56:23.989Z,10.90
2023-02-23T13:59:19.778Z,11.20
2023-02-23T14:01:53.347Z,10.90
2023-02-23T14:04:42.535Z,11.40
2023-02-23T14:07:32.486Z,11.70
2023-02-23T14:10:07.143Z,12.10
2023-02-23T14:12:40.322Z,11.90
2023-02-23T14:15:28.338Z,12.20
2023-02-23T14:18:00.827Z,11.80
2023-02-23T14:21:01.894Z,11.90
2023-02-23T14:23:39.016Z,12.20
2023-02-23T14:26:28.440Z,11.90
2023-02-23T14:29:25.664Z,10.70
2023-02-23T14:32:25.406Z,12.40
2023-02-23T14:34:59.574Z,13.00
2023-02-23T14:37:27.881Z,13.10
2023-02-23T14:40:01.658Z,13.30
2023-02-23T14:42:30.498Z,13.10
2023-02-23T14:45:05.198Z,13.20
2023-02-23T14:47:42.831Z,13.30
2023-02-23T14:50:25.815Z,12.50
2023-02-23T14:52:57.133Z,14.40
2023-02-23T14:55:29.412Z,13.10
2023-02-23T14:57:59.077Z,13.50
2023-02-23T15:00:34.001Z,13.60
2023-02-23T15:03:13.826Z,13.90
2023-02-23T15:05:54.047Z,12.50
2023-02-23T15:08:25.294Z,13.50
2023-02-23T15:11:02.423Z,13.60
2023-02-23T15:13:32.078Z,13.10
2023-02-23T15:16:09.898Z,13.20
2023-02-23T15:18:41.617Z,13.70
2023-02-23T15:21:14.042Z,13.40
2023-02-23T15:23:45.910Z,14.50
2023-02-23T15:26:32.101Z,15.10
2023-02-23T15:29:22.233Z,18.30
2023-02-23T15:31:53.831Z,15.20
2023-02-23T15:34:27.221Z,14.30
2023-02-23T15:37:01.904Z,14.00
2023-02-23T15:39:41.433Z,13.60
2023-02-23T15:42:15.458Z,12.60
2023-02-23T15:44:45.117Z,14.70
2023-02-23T15:47:28.611Z,13.30
2023-02-23T15:50:05.691Z,15.40
2023-02-23T15:52:35.298Z,14.20
2023-02-23T15:55:10.258Z,15.90
2023-02-23T15:57:53.993Z,16.00
2023-02-23T16:03:04.862Z,14.10
2023-02-23T16:05:46.498Z,15.30
2023-02-23T16:08:23.141Z,13.40
2023-02-23T16:11:19.194Z,15.10
2023-02-23T16:13:51.527Z,14.70
2023-02-23T16:16:25.791Z,14.40
2023-02-23T16:19:01.682Z,13.50
2023-02-23T16:21:31.803Z,15.30
2023-02-23T16:24:06.898Z,13.40
2023-02-23T16:26:42.583Z,14.20
2023-02-23T16:29:42.065Z,15.50
2023-02-23T16:32:20.784Z,15.40
2023-02-23T16:34:55.287Z,16.00
2023-02-23T16:37:26.300Z,16.00
2023-02-23T16:40:00.304Z,16.70
2023-02-23T16:42:32.558Z,15.50
2023-02-23T16:45:01.784Z,15.30
2023-02-23T16:47:30.012Z,15.60
2023-02-23T16:50:00.786Z,16.00
2023-02-23T16:52:31.766Z,17.90
2023-02-23T16:55:00.210Z,18.20
2023-02-23T16:57:32.409Z,16.30
2023-02-23T17:00:00.791Z,16.90
2023-02-23T17:02:29.919Z,18.30
2023-02-23T17:04:59.135Z,17.50
2023-02-23T17:07:27.698Z,16.80
2023-02-23T17:09:56.379Z,17.30
2023-02-23T17:12:24.740Z,17.70
2023-02-23T17:14:53.271Z,17.70
2023-02-23T17:17:21.877Z,19.40
2023-02-23T17:19:50.266Z,20.50
2023-02-23T17:22:18.760Z,18.40
2023-02-23T17:24:46.942Z,17.60
2023-02-23T17:27:15.299Z,17.10
2023-02-23T17:29:43.558Z,17.80
2023-02-23T17:32:12.031Z,17.10
2023-02-23T17:34:40.532Z,15.70
2023-02-23T17:37:08.716Z,17.30
2023-02-23T17:39:37.878Z,16.60
2023-02-23T17:42:06.753Z,17.50
2023-02-23T17:44:34.935Z,19.20
2023-02-23T17:47:03.396Z,19.80
2023-02-23T17:49:31.764Z,19.80
2023-02-23T17:52:00.121Z,19.50
2023-02-23T17:54:29.305Z,18.60
2023-02-23T17:56:58.196Z,18.40
2023-02-23T17:59:26.388Z,18.10
2023-02-23T18:01:54.639Z,16.20
2023-02-23T18:04:23.028Z,18.20
2023-02-23T18:06:51.439Z,16.80
2023-02-23T18:09:19.695Z,17.50
2023-02-23T18:11:48.190Z,17.50
2023-02-23T18:14:17.271Z,17.10
2023-02-23T18:16:45.992Z,17.20
2023-02-23T18:19:14.503Z,18.00
2023-02-23T18:21:44.633Z,18.70
2023-02-23T18:24:13.964Z,18.30
2023-02-23T18:26:43.210Z,18.80
2023-02-23T18:29:11.463Z,19.60
2023-02-23T18:31:39.974Z,19.70
2023-02-23T18:34:08.983Z,18.50
2023-02-23T18:36:38.344Z,19.50
2023-02-23T18:39:09.004Z,19.30
2023-02-23T18:41:37.420Z,19.20
2023-02-23T18:44:07.877Z,19.00
2023-02-23T18:46:36.426Z,20.50
2023-02-23T18:49:06.210Z,20.10
2023-02-23T18:51:34.723Z,19.10
2023-02-23T18:54:05.273Z,18.80
2023-02-23T18:56:33.540Z,19.20
2023-02-23T18:59:01.808Z,19.50
2023-02-23T19:01:33.563Z,19.30
2023-02-23T19:04:05.278Z,20.20
2023-02-23T19:06:34.980Z,19.90
2023-02-23T19:09:06.340Z,20.70
2023-02-23T19:11:35.697Z,20.90
2023-02-23T19:14:16.144Z,19.70
2023-02-23T19:16:46.879Z,20.70
2023-02-23T19:19:16.187Z,20.80
2023-02-23T19:21:44.789Z,19.90
2023-02-23T19:24:13.604Z,19.90
2023-02-23T19:26:42.029Z,20.80
2023-02-23T19:29:10.264Z,20.90
2023-02-23T19:31:39.268Z,20.40
2023-02-23T19:34:09.048Z,21.40
2023-02-23T19:36:37.606Z,20.80
2023-02-23T19:39:10.812Z,21.00
2023-02-23T19:41:40.330Z,20.50
2023-02-23T19:44:09.415Z,20.60
2023-02-23T19:46:39.986Z,20.80
2023-02-23T19:49:08.664Z,20.30
2023-02-23T19:51:36.817Z,21.50
2023-02-23T19:54:06.320Z,21.20
2023-02-23T19:56:35.172Z,22.10
2023-02-23T19:59:04.029Z,23.20
2023-02-23T20:01:32.868Z,22.90
2023-02-23T20:04:06.572Z,22.70
2023-02-23T20:06:41.020Z,22.70
2023-02-23T20:09:09.707Z,21.70
2023-02-23T20:11:38.416Z,23.80
2023-02-23T20:14:08.258Z,23.40
2023-02-23T20:16:36.997Z,23.60
2023-02-23T20:19:06.685Z,22.70
2023-02-23T20:21:35.160Z,22.00
2023-02-23T20:24:05.669Z,21.60
2023-02-23T20:26:37.304Z,22.10
2023-02-23T20:29:11.035Z,21.80
2023-02-23T20:31:42.133Z,21.80
2023-02-23T20:34:12.201Z,21.60
2023-02-23T20:36:40.715Z,22.60
2023-02-23T20:39:10.815Z,22.70
2023-02-23T20:41:43.586Z,22.60
2023-02-23T20:44:13.195Z,22.50
2023-02-23T20:46:42.221Z,23.50
2023-02-23T20:49:10.833Z,22.90
2023-02-23T20:51:41.395Z,23.60
2023-02-23T20:54:11.244Z,23.40
2023-02-23T20:56:42.085Z,23.80
2023-02-23T20:59:11.904Z,24.70
2023-02-23T21:02:06.059Z,25.50
2023-02-23T21:04:38.179Z,24.20
2023-02-23T21:07:07.027Z,24.30
2023-02-23T21:09:35.517Z,24.20
2023-02-23T21:12:04.017Z,25.00
2023-02-23T21:14:34.455Z,24.90
2023-02-23T21:17:03.670Z,26.00
2023-02-23T21:19:31.806Z,24.90
2023-02-23T21:22:01.790Z,25.20
2023-02-23T21:24:33.947Z,24.40
2023-02-23T21:27:05.394Z,25.00
2023-02-23T21:29:33.686Z,25.50
2023-02-23T21:32:01.986Z,25.90
2023-02-23T21:34:30.420Z,25.70
2023-02-23T21:36:59.362Z,24.90
2023-02-23T21:39:28.615Z,23.40
2023-02-23T21:41:56.820Z,24.80
2023-02-23T21:44:25.063Z,25.80
2023-02-23T21:46:53.495Z,25.90
2023-02-23T21:49:21.782Z,27.50
2023-02-23T21:51:51.863Z,26.20
2023-02-23T21:54:21.657Z,27.10
2023-02-23T21:56:49.979Z,27.00
2023-02-23T21:59:18.235Z,25.80
2023-02-23T22:01:46.643Z,25.70
2023-02-23T22:04:15.574Z,23.40
2023-02-23T22:06:45.131Z,25.00
2023-02-23T22:09:16.142Z,25.30
2023-02-23T22:11:47.081Z,26.00
2023-02-23T22:14:18.752Z,26.70
2023-02-23T22:16:47.883Z,24.70
2023-02-23T22:19:18.539Z,26.00
2023-02-23T22:21:48.540Z,25.40
2023-02-23T22:24:17.695Z,25.40
2023-02-23T22:26:54.199Z,25.10
2023-02-23T22:29:24.474Z,25.40
2023-02-23T22:31:52.869Z,24.70
2023-02-23T22:34:21.794Z,25.70
2023-02-23T22:36:50.340Z,24.90
2023-02-23T22:39:18.947Z,25.70
2023-02-23T22:41:48.202Z,24.00
2023-02-23T22:44:20.429Z,26.50
2023-02-23T22:46:48.836Z,26.20
2023-02-23T22:49:20.503Z,27.10
2023-02-23T22:51:50.686Z,25.00
2023-02-23T22:54:20.573Z,25.80
2023-02-23T22:56:49.118Z,25.10
2023-02-23T22:59:20.756Z,26.20
2023-02-23T23:01:50.520Z,26.40
2023-02-23T23:04:22.125Z,26.20
2023-02-23T23:06:50.695Z,26.90
2023-02-23T23:09:21.321Z,24.50
2023-02-23T23:11:52.771Z,26.70
2023-02-23T23:14:21.280Z,28.60
2023-02-23T23:16:52.575Z,26.00
2023-02-23T23:19:25.790Z,26.40
2023-02-23T23:24:28.909Z,25.70
2023-02-23T23:27:00.782Z,28.40
2023-02-23T23:29:32.691Z,30.70
2023-02-23T23:32:02.734Z,29.40
2023-02-23T23:34:33.664Z,30.30
2023-02-23T23:37:04.338Z,28.70
2023-02-23T23:39:32.524Z,29.80
2023-02-23T23:42:02.051Z,29.30
2023-02-23T23:44:30.262Z,30.40
2023-02-23T23:46:58.786Z,31.30
2023-02-23T23:49:27.346Z,29.60
2023-02-23T23:51:56.891Z,32.70
2023-02-23T23:54:28.781Z,33.30
2023-02-23T23:56:58.532Z,32.80
2023-02-23T23:59:27.032Z,32.00
